Time;durP1;ratioP1;P1;durP2;ratioP2;P2;SDS_P1;SDS_P2;PMS_P1;PMS_P2;Temp;Humidity;BMP_temperature;BMP_pressure;BME280_temperature;BME280_humidity;BME280_pressure;Samples;Min_cycle;Max_cycle;Signal;HPM_P1;HPM_P2
2023/04/02 06:18:29;;;;;;;;;;;9.00;99.90;;;;;;6214072;23;19947;-93
2023/04/02 06:20:54;;;;;;;;;;;9.00;99.90;;;;;;6229536;23;19895;-92
2023/04/02 06:23:30;;;;;;;;;;;9.10;99.90;;;;;;6232903;23;19928;-91
2023/04/02 06:26:08;;;;;;;;;;;9.00;99.90;;;;;;6233644;23;19944;-92
2023/04/02 06:28:38;;;;;;;;;;;9.00;99.90;;;;;;6232470;23;19904;-93
2023/04/02 06:31:17;;;;;;;;;;;9.00;99.90;;;;;;6233531;23;19904;-94
2023/04/02 06:34:02;;;;;;;;;;;9.00;99.90;;;;;;6231034;23;19927;-92
2023/04/02 06:36:32;;;;;;;;;;;9.00;99.90;;;;;;6255701;23;19938;-92
2023/04/02 06:39:09;;;;;;;;;;;9.00;99.90;;;;;;6230337;23;19981;-94
2023/04/02 06:41:55;;;;;;;;;;;9.10;99.90;;;;;;6250739;23;19908;-95
2023/04/02 06:57:21;;;;;;;;;;;9.00;99.90;;;;;;6217950;23;19919;-92
2023/04/02 06:59:46;;;;;;;;;;;9.00;99.90;;;;;;6230286;23;19904;-95
2023/04/02 07:02:49;;;;;;;;;;;9.10;99.90;;;;;;6228673;23;19907;-93
2023/04/02 07:05:15;;;;;;;;;;;9.20;99.90;;;;;;6221655;23;19904;-94
2023/04/02 07:07:40;;;;;;;;;;;9.20;99.90;;;;;;6223808;23;19975;-94
2023/04/02 07:10:19;;;;;;;;;;;;;;;;;;;;;
2023/04/02 07:12:49;;;;;;;;;;;9.30;99.90;;;;;;6231127;23;19904;-94
2023/04/02 07:15:15;;;;;;;;;;;9.20;99.90;;;;;;6236444;23;19904;-95
2023/04/02 07:18:05;;;;;;;;;;;9.40;99.90;;;;;;6228615;23;19911;-94
2023/04/02 07:20:36;;;;;;;;;;;9.40;99.90;;;;;;6207539;23;19915;-93
2023/04/02 07:23:29;;;;;;;;;;;9.40;99.90;;;;;;6208619;23;20387;-93
2023/04/02 07:26:26;;;;;;;;;;;9.50;99.90;;;;;;6210309;23;19915;-93
2023/04/02 07:29:13;;;;;;;;;;;9.50;99.90;;;;;;6162836;23;19904;-93
2023/04/02 07:31:42;;;;;;;;;;;9.70;99.90;;;;;;6163289;23;19911;-94
2023/04/02 07:34:15;;;;;;;;;;;9.70;99.90;;;;;;6167435;23;20301;-92
2023/04/02 07:36:41;;;;;;;;;;;9.80;99.90;;;;;;6169888;23;19911;-94
2023/04/02 07:39:06;;;;;;;;;;;9.80;99.90;;;;;;6174763;23;19912;-94
2023/04/02 07:41:32;;;;;;;;;;;9.70;99.90;;;;;;6171973;23;19913;-93
2023/04/02 07:44:01;;;;;;;;;;;9.90;99.90;;;;;;6194537;23;19905;-94
2023/04/02 07:46:29;;;;;;;;;;;9.80;99.90;;;;;;6161904;23;19966;-92
2023/04/02 07:48:55;;;;;;;;;;;9.80;99.90;;;;;;6167001;23;19974;-92
2023/04/02 07:51:22;;;;;;;;;;;10.00;99.90;;;;;;6191953;23;19939;-93
2023/04/02 07:53:49;;;;;;;;;;;10.00;99.90;;;;;;6188513;23;19936;-94
2023/04/02 07:56:20;;;;;;;;;;;10.10;99.90;;;;;;6189407;23;19912;-92
2023/04/02 07:58:52;;;;;;;;;;;10.00;99.90;;;;;;6196419;23;19912;-94
2023/04/02 08:01:34;;;;;;;;;;;10.00;99.90;;;;;;6223191;23;20326;-94
2023/04/02 08:04:00;;;;;;;;;;;10.10;99.90;;;;;;6224530;23;19904;-93
2023/04/02 08:09:20;;;;;;;;;;;9.90;99.90;;;;;;6217445;23;19936;-95
2023/04/02 08:11:46;;;;;;;;;;;10.00;99.90;;;;;;6216975;23;19908;-94
2023/04/02 08:14:11;;;;;;;;;;;10.10;99.90;;;;;;6214179;23;19904;-94
2023/04/02 08:16:47;;;;;;;;;;;10.00;99.90;;;;;;6214340;23;19915;-95
2023/04/02 08:19:18;;;;;;;;;;;10.00;99.90;;;;;;6217900;23;19912;-95
2023/04/02 08:21:44;;;;;;;;;;;10.10;99.90;;;;;;6218669;23;19904;-94
2023/04/02 08:24:13;;;;;;;;;;;10.20;99.90;;;;;;6216918;23;20446;-93
2023/04/02 08:30:09;;;;;;;;;;;10.30;99.90;;;;;;6187842;23;20034;-92
2023/04/02 08:35:57;;;;;;;;;;;;;;;;;;6157049;23;19932;-94
2023/04/02 08:41:39;;;;;;;;;;;;;;;;;;;;;
2023/04/02 08:44:24;;;;;;;;;;;10.20;99.90;;;;;;6154491;23;19976;-95
2023/04/02 08:47:13;;;;;;;;;;;10.40;99.90;;;;;;6158275;23;19905;-94
2023/04/02 08:49:44;;;;;;;;;;;10.40;99.90;;;;;;6144935;23;19904;-94
2023/04/02 09:00:26;;;;;;;;;;;10.70;99.90;;;;;;6183499;23;19987;-93
2023/04/02 09:02:55;;;;;;;;;;;10.60;99.90;;;;;;6162156;23;20360;-91
2023/04/02 09:05:43;;;;;;;;;;;;;;;;;;;;;
2023/04/02 09:08:59;;;;;;;;;;;10.80;99.90;;;;;;6185700;23;19983;-95
2023/04/02 09:11:46;;;;;;;;;;;;;;;;;;;;;
2023/04/02 09:14:18;;;;;;;;;;;10.70;99.90;;;;;;6157447;23;19995;-93
2023/04/02 09:17:11;;;;;;;;;;;10.60;99.90;;;;;;6157408;23;19948;-93
2023/04/02 09:19:43;;;;;;;;;;;10.50;99.90;;;;;;6156587;23;19927;-92
2023/04/02 09:22:29;;;;;;;;;;;10.40;99.90;;;;;;6156263;23;20314;-93
2023/04/02 09:24:58;;;;;;;;;;;10.30;99.90;;;;;;6155960;23;19904;-91
2023/04/02 09:27:27;;;;;;;;;;;10.40;99.90;;;;;;6157026;23;19905;-92
2023/04/02 09:30:05;;;;;;;;;;;10.30;99.90;;;;;;6158479;23;19904;-91
2023/04/02 09:32:31;;;;;;;;;;;10.40;99.90;;;;;;6156616;23;20345;-91
2023/04/02 09:35:08;;;;;;;;;;;10.50;99.90;;;;;;6183701;23;20094;-93
2023/04/02 09:37:38;;;;;;;;;;;10.50;99.90;;;;;;6182488;23;19912;-93
2023/04/02 09:40:15;;;;;;;;;;;10.50;99.90;;;;;;6156428;23;19908;-92
2023/04/02 09:42:41;;;;;;;;;;;10.50;99.90;;;;;;6157528;23;19904;-91
2023/04/02 09:45:35;;;;;;;;;;;10.30;99.90;;;;;;6158672;23;19930;-92
2023/04/02 09:48:18;;;;;;;;;;;10.20;99.90;;;;;;6159881;23;19954;-92
2023/04/02 09:50:49;;;;;;;;;;;10.10;99.90;;;;;;6166479;23;19927;-93
2023/04/02 09:53:46;;;;;;;;;;;10.10;99.90;;;;;;6162415;23;19905;-92
2023/04/02 09:56:52;;;;;;;;;;;;;;;;;;;;;
2023/04/02 09:59:25;;;;;;;;;;;10.10;99.90;;;;;;6182421;23;20663;-92
2023/04/02 10:01:55;;;;;;;;;;;10.00;99.90;;;;;;6219247;23;19904;-94
2023/04/02 10:04:30;;;;;;;;;;;10.10;99.90;;;;;;6216823;23;19911;-93
2023/04/02 10:06:57;;;;;;;;;;;10.00;99.90;;;;;;6213427;23;19951;-93
2023/04/02 10:09:31;;;;;;;;;;;10.10;99.90;;;;;;6212486;23;19915;-94
2023/04/02 10:12:00;;;;;;;;;;;10.10;99.90;;;;;;6217366;23;19904;-93
2023/04/02 10:14:45;;;;;;;;;;;10.10;99.90;;;;;;6212988;23;19915;-93
2023/04/02 10:17:19;;;;;;;;;;;10.10;99.90;;;;;;6211968;23;19904;-92
2023/04/02 10:19:49;;;;;;;;;;;10.10;99.90;;;;;;6211363;23;19916;-92
2023/04/02 10:22:22;;;;;;;;;;;10.20;99.90;;;;;;6211293;23;19904;-92
2023/04/02 10:25:16;;;;;;;;;;;10.20;99.90;;;;;;6217976;23;19908;-91
2023/04/02 10:28:01;;;;;;;;;;;10.30;99.90;;;;;;6175544;23;19904;-93
2023/04/02 10:30:35;;;;;;;;;;;10.30;99.90;;;;;;6221257;23;20240;-93
2023/04/02 10:33:21;;;;;;;;;;;;;;;;;;;;;
2023/04/02 10:35:50;;;;;;;;;;;;;;;;;;6214833;23;20420;-95
2023/04/02 10:38:16;;;;;;;;;;;10.90;99.90;;;;;;6213101;23;19943;-93
2023/04/02 10:40:44;;;;;;;;;;;10.70;99.90;;;;;;6212075;23;19911;-94
2023/04/02 10:43:29;;;;;;;;;;;10.80;99.90;;;;;;6212483;23;19904;-94
2023/04/02 10:46:00;;;;;;;;;;;10.90;99.90;;;;;;6211355;23;19908;-91
2023/04/02 10:48:45;;;;;;;;;;;10.90;99.90;;;;;;6211037;23;19904;-93
2023/04/02 10:51:11;;;;;;;;;;;10.70;99.90;;;;;;6211910;23;19904;-93
2023/04/02 10:53:37;;;;;;;;;;;10.80;99.90;;;;;;6211962;23;20256;-92
2023/04/02 10:56:14;;;;;;;;;;;10.70;99.90;;;;;;6212361;23;20286;-93
2023/04/02 10:58:58;;;;;;;;;;;10.80;99.90;;;;;;6211422;23;19916;-94
2023/04/02 11:01:35;;;;;;;;;;;10.90;99.90;;;;;;6216715;23;20351;-93
2023/04/02 11:04:16;;;;;;;;;;;10.80;99.90;;;;;;6213014;23;19908;-93
2023/04/02 11:06:46;;;;;;;;;;;11.00;99.90;;;;;;6214308;23;19908;-91
2023/04/02 11:09:26;;;;;;;;;;;11.00;99.90;;;;;;6213591;23;20320;-92
2023/04/02 11:11:56;;;;;;;;;;;10.80;99.90;;;;;;6212196;23;19915;-93
2023/04/02 11:14:48;;;;;;;;;;;10.80;99.90;;;;;;6213807;23;19908;-93
2023/04/02 11:17:32;;;;;;;;;;;10.70;99.90;;;;;;6206424;23;20337;-93
2023/04/02 11:20:36;;;;;;;;;;;10.70;99.90;;;;;;6214252;23;19920;-93
2023/04/02 11:23:20;;;;;;;;;;;10.80;99.90;;;;;;6130811;23;19928;-92
2023/04/02 11:26:05;;;;;;;;;;;10.90;99.90;;;;;;6151887;23;19980;-94
2023/04/02 11:28:31;;;;;;;;;;;11.00;99.90;;;;;;6177943;23;19908;-93
2023/04/02 11:31:22;;;;;;;;;;;11.00;99.90;;;;;;6212122;23;19907;-94
2023/04/02 11:33:48;;;;;;;;;;;11.10;99.90;;;;;;6187146;23;19912;-92
2023/04/02 11:36:35;;;;;;;;;;;11.00;99.90;;;;;;6213681;23;20213;-92
2023/04/02 11:39:00;;;;;;;;;;;11.20;99.90;;;;;;6213107;23;19912;-92
2023/04/02 11:41:46;;;;;;;;;;;11.20;99.90;;;;;;6214454;23;19912;-92
2023/04/02 11:44:24;;;;;;;;;;;11.30;99.90;;;;;;6212000;23;19935;-92
2023/04/02 11:46:50;;;;;;;;;;;11.30;99.90;;;;;;6213914;23;19944;-92
2023/04/02 11:49:40;;;;;;;;;;;11.20;99.90;;;;;;6213091;23;19927;-93
2023/04/02 11:52:19;;;;;;;;;;;11.20;99.90;;;;;;6213675;23;19904;-92
2023/04/02 11:55:18;;;;;;;;;;;10.90;99.90;;;;;;6222661;23;19904;-93
2023/04/02 11:57:55;;;;;;;;;;;10.80;99.90;;;;;;6160597;23;19912;-93
2023/04/02 12:00:33;;;;;;;;;;;10.80;99.90;;;;;;6220756;23;19916;-93
2023/04/02 12:03:12;;;;;;;;;;;11.00;99.90;;;;;;6216140;23;19908;-93
2023/04/02 12:05:38;;;;;;;;;;;;;;;;;;6223933;23;20303;-94
2023/04/02 12:08:35;;;;;;;;;;;11.50;99.90;;;;;;6214775;23;19904;-92
2023/04/02 12:11:03;;;;;;;;;;;11.60;99.90;;;;;;6176693;23;19904;-93
2023/04/02 12:13:41;;;;;;;;;;;11.60;99.90;;;;;;6216341;23;19990;-93
2023/04/02 12:16:08;;;;;;;;;;;11.40;99.90;;;;;;6215463;23;20240;-94
2023/04/02 12:18:34;;;;;;;;;;;11.40;99.90;;;;;;6217913;23;19926;-94
2023/04/02 12:21:02;;;;;;;;;;;11.60;99.90;;;;;;6214762;23;20218;-94
2023/04/02 12:23:47;;;;;;;;;;;11.50;99.90;;;;;;6214376;23;19912;-93
2023/04/02 12:26:30;;;;;;;;;;;11.40;99.90;;;;;;6222646;23;19903;-95
2023/04/02 12:29:14;;;;;;;;;;;11.60;99.90;;;;;;6227293;23;19908;-94
2023/04/02 12:31:44;;;;;;;;;;;11.50;99.90;;;;;;6230867;23;19911;-92
2023/04/02 12:34:20;;;;;;;;;;;11.50;99.90;;;;;;6222618;23;19935;-94
2023/04/02 12:37:15;;;;;;;;;;;11.40;99.90;;;;;;6218283;23;19946;-95
2023/04/02 12:39:50;;;;;;;;;;;11.60;99.90;;;;;;6187688;23;20291;-92
2023/04/02 12:51:45;;;;;;;;;;;11.70;99.90;;;;;;6099023;23;19976;-92
2023/04/02 12:54:43;;;;;;;;;;;11.70;99.90;;;;;;6222866;23;19951;-94
2023/04/02 13:24:58;;;;;;;;;;;11.20;99.90;;;;;;6210848;23;20315;-95
2023/04/02 13:27:53;;;;;;;;;;;;;;;;;;;;;
2023/04/02 13:30:35;;;;;;;;;;;11.00;99.90;;;;;;6219401;23;19953;-93
2023/04/02 13:33:01;;;;;;;;;;;10.90;99.90;;;;;;6216105;23;19939;-92
2023/04/02 13:35:28;;;;;;;;;;;11.30;99.90;;;;;;6224546;23;19908;-93
2023/04/02 13:38:14;;;;;;;;;;;11.40;99.90;;;;;;6231073;23;19914;-93
2023/04/02 13:40:40;;;;;;;;;;;11.60;99.90;;;;;;6228990;23;19907;-93
2023/04/02 13:43:06;;;;;;;;;;;11.50;99.90;;;;;;6218313;23;19903;-94
2023/04/02 13:45:39;;;;;;;;;;;11.30;99.90;;;;;;6217576;23;20372;-93
2023/04/02 13:48:30;;;;;;;;;;;;;;;;;;6215264;23;19908;-95
2023/04/02 13:51:07;;;;;;;;;;;11.40;99.90;;;;;;6239658;23;19904;-94
2023/04/02 13:53:48;;;;;;;;;;;11.50;99.90;;;;;;6217610;23;19904;-93
2023/04/02 13:56:15;;;;;;;;;;;;;;;;;;6212232;23;20225;-94
2023/04/02 13:58:48;;;;;;;;;;;12.20;99.90;;;;;;6238153;23;19912;-93
2023/04/02 14:01:23;;;;;;;;;;;12.20;99.90;;;;;;6218397;23;19981;-92
2023/04/02 14:04:02;;;;;;;;;;;12.00;99.90;;;;;;6213615;23;19904;-92
2023/04/02 14:06:53;;;;;;;;;;;11.30;99.90;;;;;;6246328;23;19904;-93
2023/04/02 14:10:06;;;;;;;;;;;11.30;99.90;;;;;;6214302;23;20379;-94
2023/04/02 14:12:32;;;;;;;;;;;11.30;99.90;;;;;;6183456;23;19904;-93
2023/04/02 14:15:06;;;;;;;;;;;11.20;99.90;;;;;;6158204;23;19944;-93
2023/04/02 14:17:49;;;;;;;;;;;11.00;99.90;;;;;;6184869;23;19908;-92
2023/04/02 14:20:18;;;;;;;;;;;11.00;99.90;;;;;;6155762;23;19908;-92
2023/04/02 14:23:05;;;;;;;;;;;11.00;99.90;;;;;;6181658;23;19913;-93
2023/04/02 14:25:58;;;;;;;;;;;11.10;99.90;;;;;;6182354;23;19905;-93
2023/04/02 14:28:48;;;;;;;;;;;11.40;99.90;;;;;;6158469;23;19904;-92
2023/04/02 14:31:17;;;;;;;;;;;12.00;99.90;;;;;;6122959;23;20384;-93
2023/04/02 14:33:57;;;;;;;;;;;12.20;99.90;;;;;;6204301;23;19904;-93
2023/04/02 14:36:55;;;;;;;;;;;11.80;99.90;;;;;;6213229;23;20250;-93
2023/04/02 14:39:52;;;;;;;;;;;11.30;99.90;;;;;;6215046;23;19923;-93
2023/04/02 14:42:39;;;;;;;;;;;11.20;99.90;;;;;;6168846;23;19904;-93
2023/04/02 14:45:53;;;;;;;;;;;;;;;;;;;;;
2023/04/02 14:48:25;;;;;;;;;;;11.30;99.90;;;;;;6093942;23;20388;-91
2023/04/02 14:51:21;;;;;;;;;;;11.50;99.90;;;;;;6211233;23;19904;-94
2023/04/02 14:53:58;;;;;;;;;;;11.50;99.90;;;;;;6188761;23;19904;-93
2023/04/02 14:56:24;;;;;;;;;;;11.30;99.90;;;;;;6211296;23;20236;-93
2023/04/02 14:59:04;;;;;;;;;;;11.20;99.90;;;;;;6186341;23;19916;-92
2023/04/02 15:02:06;;;;;;;;;;;11.10;99.90;;;;;;6214395;23;19904;-94
2023/04/02 15:04:44;;;;;;;;;;;11.00;99.90;;;;;;6094031;23;19909;-94
2023/04/02 15:07:17;;;;;;;;;;;11.00;99.90;;;;;;6105737;23;20360;-91
2023/04/02 15:12:54;;;;;;;;;;;11.30;99.90;;;;;;6178922;23;19982;-94
2023/04/02 15:15:51;;;;;;;;;;;11.30;99.90;;;;;;6215639;23;19945;-94
2023/04/02 15:18:16;;;;;;;;;;;11.30;99.90;;;;;;6215344;23;19990;-94
2023/04/02 15:20:51;;;;;;;;;;;11.10;99.90;;;;;;6226209;23;19892;-92
2023/04/02 15:23:41;;;;;;;;;;;11.00;99.90;;;;;;6250830;23;19912;-92
2023/04/02 15:26:13;;;;;;;;;;;10.70;99.90;;;;;;6258046;22;19908;-93
2023/04/02 15:28:42;;;;;;;;;;;10.70;99.90;;;;;;6221935;23;19927;-93
2023/04/02 15:31:11;;;;;;;;;;;10.50;99.90;;;;;;6239239;23;19904;-91
2023/04/02 15:33:47;;;;;;;;;;;10.40;99.90;;;;;;6210774;23;19908;-93
2023/04/02 15:36:16;;;;;;;;;;;10.50;99.90;;;;;;6212499;23;20317;-92
2023/04/02 15:39:00;;;;;;;;;;;10.50;99.90;;;;;;6238547;23;20333;-92
2023/04/02 15:41:31;;;;;;;;;;;10.60;99.90;;;;;;6214566;23;19904;-93
2023/04/02 15:44:25;;;;;;;;;;;10.60;99.90;;;;;;6215634;23;19903;-94
2023/04/02 15:47:00;;;;;;;;;;;10.70;99.90;;;;;;6192790;23;19908;-94
2023/04/02 15:49:41;;;;;;;;;;;10.80;99.90;;;;;;6244045;23;20280;-93
2023/04/02 15:52:45;;;;;;;;;;;10.70;99.90;;;;;;6212492;23;19904;-93
2023/04/02 15:55:30;;;;;;;;;;;10.80;99.90;;;;;;6209017;23;19910;-94
2023/04/02 16:05:07;;;;;;;;;;;;;;;;;;;;;
2023/04/02 16:08:07;;;;;;;;;;;;;;;;;;;;;
2023/04/02 16:10:53;;;;;;;;;;;10.80;99.90;;;;;;6114936;23;19920;-92
2023/04/02 16:13:28;;;;;;;;;;;10.80;99.90;;;;;;6217163;23;19911;-95
2023/04/02 16:15:57;;;;;;;;;;;10.70;99.90;;;;;;6240896;23;19928;-94
2023/04/02 16:18:29;;;;;;;;;;;10.70;99.90;;;;;;6241446;23;20498;-93
2023/04/02 16:21:00;;;;;;;;;;;10.70;99.90;;;;;;6215529;23;19911;-92
2023/04/02 16:23:49;;;;;;;;;;;10.60;99.90;;;;;;6217087;23;19954;-94
2023/04/02 16:26:21;;;;;;;;;;;10.50;99.90;;;;;;6208483;23;20218;-94
2023/04/02 16:28:46;;;;;;;;;;;10.50;99.90;;;;;;6239288;23;19910;-94
2023/04/02 16:31:18;;;;;;;;;;;10.40;99.90;;;;;;6243085;23;19935;-92
2023/04/02 16:33:46;;;;;;;;;;;10.60;99.90;;;;;;6241868;23;20325;-95
2023/04/02 16:36:21;;;;;;;;;;;10.60;99.90;;;;;;6236984;23;19904;-92
2023/04/02 16:38:57;;;;;;;;;;;11.00;99.90;;;;;;6212270;23;19912;-91
2023/04/02 16:41:41;;;;;;;;;;;10.60;99.90;;;;;;6237140;23;20043;-91
2023/04/02 16:44:25;;;;;;;;;;;10.60;99.90;;;;;;6216005;23;19904;-92
2023/04/02 16:47:01;;;;;;;;;;;10.50;99.90;;;;;;6241740;23;19904;-94
2023/04/02 16:49:30;;;;;;;;;;;10.40;99.90;;;;;;6217753;23;19927;-93
2023/04/02 16:52:33;;;;;;;;;;;10.40;99.90;;;;;;6241019;23;19904;-93
2023/04/02 16:54:59;;;;;;;;;;;10.30;99.90;;;;;;6214164;23;20019;-92
2023/04/02 16:57:43;;;;;;;;;;;10.20;99.90;;;;;;6238392;23;19904;-93
2023/04/02 17:03:39;;;;;;;;;;;10.20;99.90;;;;;;6130206;23;19911;-92
2023/04/02 17:06:15;;;;;;;;;;;10.30;99.90;;;;;;6128699;23;19948;-93
2023/04/02 17:09:46;;;;;;;;;;;10.30;99.90;;;;;;6196385;23;19947;-93
2023/04/02 17:11:51;;;;;;;;;;;10.40;99.90;;;;;;6200432;23;20281;-94
2023/04/02 17:14:22;;;;;;;;;;;10.40;99.90;;;;;;6210318;23;19904;-93
2023/04/02 17:16:49;;;;;;;;;;;;;;;;;;6211827;23;19951;-94
2023/04/02 17:19:15;;;;;;;;;;;10.20;99.90;;;;;;6237805;23;19912;-93
2023/04/02 17:21:44;;;;;;;;;;;10.20;99.90;;;;;;6211273;23;19951;-92
2023/04/02 17:24:19;;;;;;;;;;;10.10;99.90;;;;;;6211620;23;19954;-92
2023/04/02 17:26:58;;;;;;;;;;;10.00;99.90;;;;;;6240442;23;19953;-93
2023/04/02 17:29:51;;;;;;;;;;;10.00;99.90;;;;;;6215989;23;19950;-93
2023/04/02 17:32:41;;;;;;;;;;;10.00;99.90;;;;;;6184651;23;19936;-93
2023/04/02 17:35:19;;;;;;;;;;;10.00;99.90;;;;;;6214774;23;19911;-93
2023/04/02 17:38:04;;;;;;;;;;;10.00;99.90;;;;;;6242456;23;20333;-92
2023/04/02 17:40:33;;;;;;;;;;;10.00;99.90;;;;;;6236861;23;19904;-93
2023/04/02 17:43:14;;;;;;;;;;;9.90;99.90;;;;;;6213895;23;20431;-94
2023/04/02 17:45:44;;;;;;;;;;;10.00;99.90;;;;;;6236755;23;19978;-94
2023/04/02 17:48:13;;;;;;;;;;;10.30;99.90;;;;;;6212144;23;20329;-92
2023/04/02 17:50:38;;;;;;;;;;;9.80;99.90;;;;;;6236104;23;19908;-93
2023/04/02 17:53:20;;;;;;;;;;;9.70;99.90;;;;;;6236264;23;19910;-93
2023/04/02 17:56:05;;;;;;;;;;;9.60;99.90;;;;;;6210709;23;19904;-94
2023/04/02 17:58:43;;;;;;;;;;;9.60;99.90;;;;;;6236184;23;19997;-92
2023/04/02 18:01:23;;;;;;;;;;;9.60;99.90;;;;;;6212133;23;19908;-93
2023/04/02 18:03:49;;;;;;;;;;;9.60;99.90;;;;;;6212748;23;19904;-93
2023/04/02 18:06:33;;;;;;;;;;;9.40;99.90;;;;;;6236636;23;19927;-94
2023/04/02 18:08:59;;;;;;;;;;;9.30;99.90;;;;;;6236997;23;19904;-93
2023/04/02 18:11:36;;;;;;;;;;;9.30;99.90;;;;;;6237315;23;20299;-94
2023/04/02 18:14:12;;;;;;;;;;;9.30;99.90;;;;;;6222138;23;19904;-93
2023/04/02 18:16:44;;;;;;;;;;;9.30;99.90;;;;;;6223422;23;19930;-93
2023/04/02 18:19:17;;;;;;;;;;;9.20;99.90;;;;;;6253908;23;19918;-93
2023/04/02 18:21:46;;;;;;;;;;;9.20;99.90;;;;;;6226629;23;19910;-92
2023/04/02 18:24:30;;;;;;;;;;;9.60;99.90;;;;;;6241288;23;19904;-93
2023/04/02 18:26:59;;;;;;;;;;;;;;;;;;6237995;23;19904;-93
2023/04/02 18:29:40;;;;;;;;;;;9.10;99.90;;;;;;6236335;23;19930;-92
2023/04/02 18:32:27;;;;;;;;;;;9.00;99.90;;;;;;6242974;23;19904;-92
2023/04/02 18:35:06;;;;;;;;;;;9.00;99.90;;;;;;6238327;23;20317;-93
2023/04/02 18:37:44;;;;;;;;;;;9.00;99.90;;;;;;6209997;23;19907;-92
2023/04/02 18:40:20;;;;;;;;;;;9.10;99.90;;;;;;6235677;23;19904;-94
2023/04/02 18:43:12;;;;;;;;;;;9.20;99.90;;;;;;6235999;23;20221;-93
2023/04/02 18:45:55;;;;;;;;;;;9.10;99.90;;;;;;6207138;23;19908;-92
2023/04/02 18:48:40;;;;;;;;;;;9.00;99.90;;;;;;6211590;23;19991;-92
2023/04/02 18:51:12;;;;;;;;;;;8.90;99.90;;;;;;6211662;23;19904;-93
2023/04/02 18:53:39;;;;;;;;;;;9.00;99.90;;;;;;6211311;23;19977;-92
2023/04/02 18:56:06;;;;;;;;;;;8.90;99.90;;;;;;6211271;23;19911;-93
2023/04/02 18:58:51;;;;;;;;;;;8.90;99.90;;;;;;6210688;23;20229;-93
2023/04/02 19:01:22;;;;;;;;;;;8.90;99.90;;;;;;6211068;23;19911;-92
2023/04/02 19:03:50;;;;;;;;;;;8.80;99.90;;;;;;6210674;23;20237;-92
2023/04/02 19:06:20;;;;;;;;;;;8.60;99.90;;;;;;6210638;23;19904;-92
2023/04/02 19:09:05;;;;;;;;;;;8.70;99.90;;;;;;6211008;23;19926;-92
2023/04/02 19:11:31;;;;;;;;;;;8.70;99.90;;;;;;6210780;23;19920;-91
2023/04/02 19:14:00;;;;;;;;;;;8.80;99.90;;;;;;6210670;23;20249;-94
2023/04/02 19:16:39;;;;;;;;;;;8.80;99.90;;;;;;6210101;23;19904;-93
2023/04/02 19:19:17;;;;;;;;;;;8.70;99.90;;;;;;6209376;23;19912;-91
2023/04/02 19:21:46;;;;;;;;;;;8.60;99.90;;;;;;6209656;23;19950;-93
2023/04/02 19:24:26;;;;;;;;;;;8.60;99.90;;;;;;6235107;23;19904;-92
2023/04/02 19:27:02;;;;;;;;;;;9.00;99.90;;;;;;6210542;23;19904;-93
2023/04/02 19:29:39;;;;;;;;;;;8.50;99.90;;;;;;6210804;23;19907;-94
2023/04/02 19:32:32;;;;;;;;;;;8.60;99.90;;;;;;6210817;23;19911;-94
2023/04/02 19:35:03;;;;;;;;;;;8.70;99.90;;;;;;6211331;23;20221;-92
2023/04/02 19:37:44;;;;;;;;;;;8.60;99.90;;;;;;6236084;23;19974;-91
2023/04/02 19:40:10;;;;;;;;;;;8.50;99.90;;;;;;6213928;23;20252;-93
2023/04/02 19:42:41;;;;;;;;;;;9.60;99.90;;;;;;6235283;23;19903;-93
2023/04/02 19:45:37;;;;;;;;;;;8.60;99.90;;;;;;6212100;23;19911;-92
2023/04/02 19:48:12;;;;;;;;;;;8.50;99.90;;;;;;6198084;23;19907;-92
2023/04/02 19:50:38;;;;;;;;;;;8.40;99.90;;;;;;6216472;23;19904;-92
2023/04/02 19:53:03;;;;;;;;;;;8.40;99.90;;;;;;6211812;23;20015;-93
2023/04/02 19:55:29;;;;;;;;;;;8.30;99.90;;;;;;6211492;23;19904;-93
2023/04/02 19:57:54;;;;;;;;;;;8.20;99.90;;;;;;6211675;23;19916;-92
2023/04/02 20:00:20;;;;;;;;;;;8.20;99.90;;;;;;6213269;23;19904;-92
2023/04/02 20:02:48;;;;;;;;;;;8.30;99.90;;;;;;6212964;23;20284;-92
2023/04/02 20:05:16;;;;;;;;;;;8.30;99.90;;;;;;6211684;23;19904;-92
2023/04/02 20:07:42;;;;;;;;;;;8.30;99.90;;;;;;6212603;23;19966;-92
2023/04/02 20:10:08;;;;;;;;;;;8.20;99.90;;;;;;6214880;23;20280;-95
2023/04/02 20:12:36;;;;;;;;;;;8.80;99.90;;;;;;6211800;23;19911;-94
2023/04/02 20:15:05;;;;;;;;;;;8.20;99.90;;;;;;6213157;23;20108;-91
2023/04/02 20:17:30;;;;;;;;;;;8.30;99.90;;;;;;6211155;23;19951;-92
2023/04/02 20:20:09;;;;;;;;;;;8.30;99.90;;;;;;6212005;23;19912;-91
2023/04/02 20:22:34;;;;;;;;;;;8.30;99.90;;;;;;6211618;23;19908;-93
2023/04/02 20:25:15;;;;;;;;;;;;;;;;;;;;;
2023/04/02 20:28:22;;;;;;;;;;;8.30;99.90;;;;;;6214633;23;20371;-93
2023/04/02 20:31:01;;;;;;;;;;;;;;;;;;;;;
2023/04/02 20:33:27;;;;;;;;;;;8.30;99.90;;;;;;6215643;23;19983;-92
2023/04/02 20:36:03;;;;;;;;;;;8.30;99.90;;;;;;6212467;23;19911;-92
2023/04/02 20:38:47;;;;;;;;;;;8.30;99.90;;;;;;6211226;23;20443;-92
2023/04/02 20:44:09;;;;;;;;;;;8.20;99.90;;;;;;6151840;23;19956;-93
2023/04/02 20:46:40;;;;;;;;;;;8.20;99.90;;;;;;6200375;23;20240;-91
2023/04/02 20:49:05;;;;;;;;;;;8.30;99.90;;;;;;6212208;23;19935;-93
2023/04/02 20:51:41;;;;;;;;;;;;;;;;;;;;;
2023/04/02 20:54:14;;;;;;;;;;;8.10;99.90;;;;;;6214397;23;19983;-92
2023/04/02 20:56:41;;;;;;;;;;;8.00;99.90;;;;;;6213967;23;19905;-93
2023/04/02 20:59:13;;;;;;;;;;;8.00;99.90;;;;;;6213175;23;19919;-92
2023/04/02 21:01:42;;;;;;;;;;;7.90;99.90;;;;;;6214226;23;19923;-92
2023/04/02 21:04:07;;;;;;;;;;;7.80;99.90;;;;;;6213704;23;19904;-94
2023/04/02 21:06:38;;;;;;;;;;;7.80;99.90;;;;;;6215542;23;20245;-91
2023/04/02 21:09:20;;;;;;;;;;;;;;;;;;;;;
2023/04/02 21:11:48;;;;;;;;;;;7.70;99.90;;;;;;6238451;23;19912;-93
2023/04/02 21:14:34;;;;;;;;;;;7.60;99.90;;;;;;6237423;23;19904;-93
2023/04/02 21:17:10;;;;;;;;;;;7.60;99.90;;;;;;6236559;23;19908;-92
2023/04/02 21:19:41;;;;;;;;;;;7.60;99.90;;;;;;6222954;23;19912;-93
2023/04/02 21:22:24;;;;;;;;;;;7.60;99.90;;;;;;6215178;23;19950;-93
2023/04/02 21:24:52;;;;;;;;;;;7.40;99.90;;;;;;6212510;23;19903;-91
2023/04/02 21:27:24;;;;;;;;;;;7.50;99.90;;;;;;6212390;23;19908;-93
2023/04/02 21:29:50;;;;;;;;;;;;;;;;;;6211570;23;19995;-92
2023/04/02 21:32:21;;;;;;;;;;;7.60;99.90;;;;;;6236609;23;20340;-92
2023/04/02 21:34:48;;;;;;;;;;;7.60;99.90;;;;;;6211599;23;19904;-91
2023/04/02 21:37:23;;;;;;;;;;;7.50;99.90;;;;;;6211427;23;19908;-92
2023/04/02 21:40:06;;;;;;;;;;;;;;;;;;6210999;23;20281;-92
2023/04/02 21:42:39;;;;;;;;;;;7.60;99.90;;;;;;6235827;23;19907;-92
2023/04/02 21:45:05;;;;;;;;;;;7.50;99.90;;;;;;6210729;23;19938;-92
2023/04/02 21:47:31;;;;;;;;;;;7.40;99.90;;;;;;6211177;23;20321;-93
2023/04/02 21:49:56;;;;;;;;;;;7.30;99.90;;;;;;6211327;23;19904;-92
2023/04/02 21:52:22;;;;;;;;;;;7.30;99.90;;;;;;6211427;23;19908;-93
2023/04/02 21:54:47;;;;;;;;;;;7.20;99.90;;;;;;6211135;23;19979;-92
2023/04/02 21:57:13;;;;;;;;;;;7.20;99.90;;;;;;6211251;23;19904;-94
2023/04/02 21:59:38;;;;;;;;;;;7.10;99.90;;;;;;6211354;23;20337;-92
2023/04/02 22:02:04;;;;;;;;;;;7.20;99.90;;;;;;6211632;23;20297;-92
2023/04/02 22:04:32;;;;;;;;;;;7.00;99.90;;;;;;6211062;23;20282;-92
2023/04/02 22:06:57;;;;;;;;;;;6.90;99.90;;;;;;6210917;23;19938;-93
2023/04/02 22:09:23;;;;;;;;;;;6.90;99.90;;;;;;6211072;23;19903;-92
2023/04/02 22:11:51;;;;;;;;;;;6.90;99.90;;;;;;6211319;23;19916;-93
2023/04/02 22:14:17;;;;;;;;;;;6.90;99.90;;;;;;6210721;23;19903;-91
2023/04/02 22:16:42;;;;;;;;;;;6.90;99.90;;;;;;6211283;23;20030;-92
2023/04/02 22:19:10;;;;;;;;;;;6.90;99.90;;;;;;6211146;23;19922;-91
2023/04/02 22:21:36;;;;;;;;;;;6.80;99.90;;;;;;6211370;23;19983;-92
2023/04/02 22:24:03;;;;;;;;;;;6.70;99.90;;;;;;6211131;23;20092;-93
2023/04/02 22:26:29;;;;;;;;;;;;;;;;;;6212790;23;19915;-91
2023/04/02 22:28:54;;;;;;;;;;;6.60;99.90;;;;;;6236483;23;20285;-92
2023/04/02 22:31:22;;;;;;;;;;;6.60;99.90;;;;;;6211501;23;20030;-92
2023/04/02 22:33:51;;;;;;;;;;;6.60;99.90;;;;;;6211071;23;19904;-91
2023/04/02 22:36:17;;;;;;;;;;;6.50;99.90;;;;;;6210691;23;19904;-94
2023/04/02 22:38:43;;;;;;;;;;;6.50;99.90;;;;;;6211115;23;19919;-93
2023/04/02 22:41:08;;;;;;;;;;;6.40;99.90;;;;;;6211810;23;19908;-92
2023/04/02 22:43:34;;;;;;;;;;;6.40;99.90;;;;;;6236639;23;19982;-93
2023/04/02 22:46:00;;;;;;;;;;;6.30;99.90;;;;;;6211281;23;19904;-91
2023/04/02 22:48:41;;;;;;;;;;;6.20;99.90;;;;;;6211091;23;19910;-91
2023/04/02 22:51:10;;;;;;;;;;;6.30;99.90;;;;;;6210990;23;19911;-92
2023/04/02 22:53:36;;;;;;;;;;;6.20;99.90;;;;;;6210542;23;19908;-93
2023/04/02 22:56:04;;;;;;;;;;;6.10;99.90;;;;;;6211103;23;20092;-91
2023/04/02 22:58:30;;;;;;;;;;;6.10;99.90;;;;;;6210877;23;19912;-92
2023/04/02 23:01:02;;;;;;;;;;;6.10;99.90;;;;;;6211160;23;19950;-93
2023/04/02 23:03:28;;;;;;;;;;;6.00;99.90;;;;;;6210832;23;19911;-92
2023/04/02 23:06:01;;;;;;;;;;;5.90;99.90;;;;;;6210768;23;19904;-93
2023/04/02 23:08:27;;;;;;;;;;;5.80;99.90;;;;;;6210739;23;19904;-93
2023/04/02 23:11:01;;;;;;;;;;;5.90;99.90;;;;;;6210882;23;19908;-92
2023/04/02 23:13:29;;;;;;;;;;;5.80;99.90;;;;;;6211416;23;19943;-92
2023/04/02 23:15:55;;;;;;;;;;;5.80;99.90;;;;;;6211198;23;19904;-91